sensor_id;sensor_type;location;lat;lon;timestamp;pressure;altitude;pressure_sealevel;temperature;humidity
69593;BME280;56796;50.122;14.468;2023-05-25T00:05:31;985.47;;;9.7;81.25
69593;BME280;56796;50.122;14.468;2023-05-25T00:24:49;985.33;;;9.51;81.82
69593;BME280;56796;50.122;14.468;2023-05-25T00:44:15;985.34;;;9.5;81.92
69593;BME280;56796;50.122;14.468;2023-05-25T01:03:42;985.41;;;9.39;82.16
69593;BME280;56796;50.122;14.468;2023-05-25T01:23:09;985.52;;;8.83;84.21
69593;BME280;56796;50.122;14.468;2023-05-25T01:42:35;985.38;;;8.68;84.95
69593;BME280;56796;50.122;14.468;2023-05-25T02:02:00;985.51;;;8.68;85.01
69593;BME280;56796;50.122;14.468;2023-05-25T02:21:26;985.6;;;8.55;85.13
69593;BME280;56796;50.122;14.468;2023-05-25T02:40:57;985.69;;;8.49;85.43
69593;BME280;56796;50.122;14.468;2023-05-25T03:00:09;985.92;;;8.18;86.21
69593;BME280;56796;50.122;14.468;2023-05-25T03:19:35;985.81;;;8.31;85.93
69593;BME280;56796;50.122;14.468;2023-05-25T03:39:02;985.97;;;8.55;85.51
69593;BME280;56796;50.122;14.468;2023-05-25T03:58:29;986.13;;;8.72;84.28
69593;BME280;56796;50.122;14.468;2023-05-25T04:17:53;986.23;;;9.27;83.11
69593;BME280;56796;50.122;14.468;2023-05-25T04:37:24;986.27;;;9.58;81.91
69593;BME280;56796;50.122;14.468;2023-05-25T04:56:49;986.27;;;10.05;81.04
69593;BME280;56796;50.122;14.468;2023-05-25T05:16:20;986.3;;;10.56;79.01
69593;BME280;56796;50.122;14.468;2023-05-25T05:35:49;986.38;;;11.44;76.99
69593;BME280;56796;50.122;14.468;2023-05-25T05:55:15;986.59;;;12.16;75.38
69593;BME280;56796;50.122;14.468;2023-05-25T06:14:44;986.77;;;12.78;73.02
69593;BME280;56796;50.122;14.468;2023-05-25T06:34:18;986.76;;;14.12;69.62
69593;BME280;56796;50.122;14.468;2023-05-25T06:53:52;986.8;;;14.84;67
69593;BME280;56796;50.122;14.468;2023-05-25T07:13:22;986.74;;;16.58;63.67
69593;BME280;56796;50.122;14.468;2023-05-25T07:32:55;986.8;;;17.37;61.5
69593;BME280;56796;50.122;14.468;2023-05-25T07:52:23;986.84;;;18.32;58.4
69593;BME280;56796;50.122;14.468;2023-05-25T08:11:54;986.94;;;19.31;56.73
69593;BME280;56796;50.122;14.468;2023-05-25T08:31:23;986.85;;;19.84;55.45
69593;BME280;56796;50.122;14.468;2023-05-25T08:50:50;986.68;;;20.28;50.91
69593;BME280;56796;50.122;14.468;2023-05-25T09:10:22;986.79;;;21.1;48.67
69593;BME280;56796;50.122;14.468;2023-05-25T09:29:49;986.82;;;21.26;47.8
69593;BME280;56796;50.122;14.468;2023-05-25T09:49:21;986.76;;;21.89;45.81
69593;BME280;56796;50.122;14.468;2023-05-25T10:08:50;986.81;;;22.41;44.58
69593;BME280;56796;50.122;14.468;2023-05-25T10:28:20;986.58;;;23.35;43.33
69593;BME280;56796;50.122;14.468;2023-05-25T10:47:48;986.46;;;23.25;43.32
69593;BME280;56796;50.122;14.468;2023-05-25T11:07:16;986.3;;;24.9;40.25
69593;BME280;56796;50.122;14.468;2023-05-25T11:46:06;986.17;;;25.2;39.7
69593;BME280;56796;50.122;14.468;2023-05-25T12:25:01;985.86;;;24.92;38.18
69593;BME280;56796;50.122;14.468;2023-05-25T12:44:26;985.78;;;25.35;37.4
69593;BME280;56796;50.122;14.468;2023-05-25T13:03:54;985.72;;;24.5;38.43
69593;BME280;56796;50.122;14.468;2023-05-25T13:23:18;985.58;;;25.62;38.07
69593;BME280;56796;50.122;14.468;2023-05-25T13:42:45;985.42;;;25.47;37.74
69593;BME280;56796;50.122;14.468;2023-05-25T14:02:14;985.32;;;25.24;38.16
69593;BME280;56796;50.122;14.468;2023-05-25T14:21:40;985.21;;;25.44;40.02
69593;BME280;56796;50.122;14.468;2023-05-25T14:41:05;985.13;;;25.01;39.77
69593;BME280;56796;50.122;14.468;2023-05-25T15:00:36;985.05;;;24.62;41.77
69593;BME280;56796;50.122;14.468;2023-05-25T15:19:53;984.95;;;23.38;43.82
69593;BME280;56796;50.122;14.468;2023-05-25T15:39:08;984.83;;;23.15;44.55
69593;BME280;56796;50.122;14.468;2023-05-25T15:58:29;984.87;;;22.59;45.8
69593;BME280;56796;50.122;14.468;2023-05-25T16:17:54;984.84;;;22.15;45.75
69593;BME280;56796;50.122;14.468;2023-05-25T16:37:23;984.77;;;21.87;46.33
69593;BME280;56796;50.122;14.468;2023-05-25T16:56:45;984.77;;;21.28;45.72
69593;BME280;56796;50.122;14.468;2023-05-25T17:16:12;984.83;;;20.62;47.18
69593;BME280;56796;50.122;14.468;2023-05-25T17:35:35;984.99;;;20.04;49.06
69593;BME280;56796;50.122;14.468;2023-05-25T17:55:03;984.86;;;19.41;48.14
69593;BME280;56796;50.122;14.468;2023-05-25T18:14:24;985.08;;;18.87;48.17
69593;BME280;56796;50.122;14.468;2023-05-25T18:33:52;985.07;;;18.29;49.25
69593;BME280;56796;50.122;14.468;2023-05-25T18:53:16;985.18;;;17.75;51.72
69593;BME280;56796;50.122;14.468;2023-05-25T19:12:38;985.36;;;17.35;54.5
69593;BME280;56796;50.122;14.468;2023-05-25T19:32:03;985.71;;;17;57.28
69593;BME280;56796;50.122;14.468;2023-05-25T19:51:27;985.72;;;16.74;58.78
69593;BME280;56796;50.122;14.468;2023-05-25T20:10:54;985.73;;;16.59;59.29
69593;BME280;56796;50.122;14.468;2023-05-25T20:30:20;985.89;;;16.29;60.06
69593;BME280;56796;50.122;14.468;2023-05-25T20:49:50;986.08;;;15.99;61.28
69593;BME280;56796;50.122;14.468;2023-05-25T21:09:16;986.16;;;15.63;63.05
69593;BME280;56796;50.122;14.468;2023-05-25T21:28:38;986.2;;;15.26;64.47
69593;BME280;56796;50.122;14.468;2023-05-25T21:48:06;986.33;;;14.79;66.22
69593;BME280;56796;50.122;14.468;2023-05-25T22:07:31;986.44;;;14.58;67.09
69593;BME280;56796;50.122;14.468;2023-05-25T22:26:56;986.5;;;14.4;67.91
69593;BME280;56796;50.122;14.468;2023-05-25T22:46:19;986.56;;;14.07;69.45
69593;BME280;56796;50.122;14.468;2023-05-25T23:05:44;986.64;;;13.86;70.54
69593;BME280;56796;50.122;14.468;2023-05-25T23:25:13;986.65;;;13.46;72.13
69593;BME280;56796;50.122;14.468;2023-05-25T23:44:39;986.72;;;13.22;73.42
